PWSweather.com
Personal Weather Stations
Station Observations
ISZATSO01
Eastmont Hills, Oakland, CA 94605

Eastmont HillsOakland, CA 94605

Lat: 37.771372, Lon: -122.163016

Elevation: 427

Station Type: Davis VantageVue

http://iszatso.net/weather

Latest ConditionsUpdated 10:00:00 AM PDT Sunday, Sep 23, 2018
Currently Today's Max Today's Min Today's Average
Temperature 60.7°F15.9°C 60.7°F15.9°C 52.5°F11.4°C 54.5°F12.5°C
Dew Point 58.0°F14.4°C 58.0°F14.4°C 50.2°F10.1°C 52.4°F11.3°C
Winds Calm Calm Calm -Calm - - Calm Calm
Wind Gusts 1.2 mph1.9 kmh 2.3 mph3.7 kmh - -
Humidity 91% 95% 87% 93%
Pressure 29.92 in1013.2 mb 29.92 in1013.2 mb 29.87 in1011.5 mb -
Hour Temp Dew Point Humidity Winds Wind Gusts Pressure Precip Precip Rate Daily Precip Total
10:00 AM 60.7°F15.9°C 58.0°F14.4°C 91% Calm Calm 1.2 mph1.9 kmh 29.92 in1013.2 mb - 0.00 in0.0 mm 0.00 in0.0 mm
09:50 AM 59.7°F15.4°C 57.7°F14.3°C 93% Calm Calm 1.2 mph1.9 kmh 29.92 in1013.2 mb - 0.00 in0.0 mm 0.00 in0.0 mm
09:40 AM 59.0°F15.0°C 57.0°F13.9°C 93% Calm Calm 2.3 mph3.7 kmh 29.92 in1013.2 mb - 0.00 in0.0 mm 0.00 in0.0 mm
09:30 AM 58.2°F14.6°C 56.5°F13.6°C 94% Calm Calm -- 29.92 in1013.2 mb - 0.00 in0.0 mm 0.00 in0.0 mm
09:20 AM 57.5°F14.2°C 56.1°F13.4°C 95% Calm Calm 1.2 mph1.9 kmh 29.92 in1013.2 mb - 0.00 in0.0 mm 0.00 in0.0 mm
09:10 AM 57.1°F13.9°C 55.7°F13.2°C 95% Calm Calm -- 29.92 in1013.2 mb - 0.00 in0.0 mm 0.00 in0.0 mm
09:00 AM 56.8°F13.8°C 55.1°F12.8°C 94% Calm Calm 1.2 mph1.9 kmh 29.91 in1012.9 mb - 0.00 in0.0 mm 0.00 in0.0 mm
08:50 AM 56.9°F13.8°C 55.5°F13.1°C 95% Calm Calm -- 29.92 in1013.2 mb - 0.00 in0.0 mm 0.00 in0.0 mm
08:40 AM 56.6°F13.7°C 55.2°F12.9°C 95% Calm Calm -- 29.91 in1012.9 mb - 0.00 in0.0 mm 0.00 in0.0 mm
08:30 AM 56.5°F13.6°C 55.1°F12.8°C 95% Calm Calm 2.3 mph3.7 kmh 29.91 in1012.9 mb - 0.00 in0.0 mm 0.00 in0.0 mm
08:20 AM 56.0°F13.3°C 54.6°F12.6°C 95% Calm Calm -- 29.91 in1012.9 mb - 0.00 in0.0 mm 0.00 in0.0 mm
08:10 AM 55.3°F12.9°C 53.9°F12.2°C 95% Calm Calm -- 29.91 in1012.9 mb - 0.00 in0.0 mm 0.00 in0.0 mm
08:00 AM 54.8°F12.7°C 53.4°F11.9°C 95% Calm Calm -- 29.91 in1012.9 mb - 0.00 in0.0 mm 0.00 in0.0 mm
07:50 AM 54.6°F12.6°C 53.2°F11.8°C 95% Calm Calm -- 29.90 in1012.5 mb - 0.00 in0.0 mm 0.00 in0.0 mm
07:40 AM 54.4°F12.4°C 53.0°F11.7°C 95% Calm Calm -- 29.90 in1012.5 mb - 0.00 in0.0 mm 0.00 in0.0 mm
07:30 AM 53.8°F12.1°C 52.4°F11.3°C 95% Calm Calm -- 29.89 in1012.2 mb - 0.00 in0.0 mm 0.00 in0.0 mm
07:20 AM 53.0°F11.7°C 51.6°F10.9°C 95% Calm Calm -- 29.88 in1011.9 mb - 0.00 in0.0 mm 0.00 in0.0 mm
07:10 AM 52.7°F11.5°C 51.3°F10.7°C 95% Calm Calm -- 29.88 in1011.9 mb - 0.00 in0.0 mm 0.00 in0.0 mm
07:00 AM 52.5°F11.4°C 50.8°F10.4°C 94% Calm Calm -- 29.88 in1011.9 mb - 0.00 in0.0 mm 0.00 in0.0 mm
06:50 AM 52.8°F11.6°C 51.1°F10.6°C 94% Calm Calm -- 29.88 in1011.9 mb - 0.00 in0.0 mm 0.00 in0.0 mm
06:40 AM 52.9°F11.6°C 51.5°F10.8°C 95% Calm Calm -- 29.88 in1011.9 mb - 0.00 in0.0 mm 0.00 in0.0 mm
06:30 AM 53.0°F11.7°C 51.6°F10.9°C 95% Calm Calm -- 29.88 in1011.9 mb - 0.00 in0.0 mm 0.00 in0.0 mm
06:20 AM 52.6°F11.4°C 51.2°F10.7°C 95% Calm Calm -- 29.88 in1011.9 mb - 0.00 in0.0 mm 0.00 in0.0 mm
06:10 AM 52.6°F11.4°C 50.6°F10.3°C 93% Calm Calm -- 29.88 in1011.9 mb - 0.00 in0.0 mm 0.00 in0.0 mm
06:00 AM 52.9°F11.6°C 51.2°F10.7°C 94% Calm Calm -- 29.88 in1011.9 mb - 0.00 in0.0 mm 0.00 in0.0 mm
05:50 AM 52.6°F11.4°C 50.6°F10.3°C 93% Calm Calm -- 29.88 in1011.9 mb - 0.00 in0.0 mm 0.00 in0.0 mm
05:40 AM 53.0°F11.7°C 51.0°F10.6°C 93% Calm Calm -- 29.88 in1011.9 mb - 0.00 in0.0 mm 0.00 in0.0 mm
05:30 AM 53.3°F11.8°C 51.6°F10.9°C 94% Calm Calm -- 29.88 in1011.9 mb - 0.00 in0.0 mm 0.00 in0.0 mm
05:20 AM 53.5°F11.9°C 51.5°F10.8°C 93% Calm Calm -- 29.87 in1011.5 mb - 0.00 in0.0 mm 0.00 in0.0 mm
05:10 AM 53.6°F12.0°C 51.9°F11.1°C 94% Calm Calm -- 29.87 in1011.5 mb - 0.00 in0.0 mm 0.00 in0.0 mm
05:00 AM 53.0°F11.7°C 51.1°F10.6°C 93% Calm Calm -- 29.87 in1011.5 mb - 0.00 in0.0 mm 0.00 in0.0 mm
04:50 AM 53.8°F12.1°C 52.1°F11.2°C 94% Calm Calm -- 29.87 in1011.5 mb - 0.00 in0.0 mm 0.00 in0.0 mm
04:40 AM 53.6°F12.0°C 52.0°F11.1°C 94% Calm Calm -- 29.87 in1011.5 mb - 0.00 in0.0 mm 0.00 in0.0 mm
04:30 AM 52.9°F11.6°C 50.9°F10.5°C 93% Calm Calm -- 29.88 in1011.9 mb - 0.00 in0.0 mm 0.00 in0.0 mm
04:20 AM 53.2°F11.8°C 51.2°F10.7°C 93% Calm Calm -- 29.88 in1011.9 mb - 0.00 in0.0 mm 0.00 in0.0 mm
04:10 AM 53.1°F11.7°C 51.1°F10.6°C 93% Calm Calm -- 29.88 in1011.9 mb - 0.00 in0.0 mm 0.00 in0.0 mm
04:00 AM 53.3°F11.8°C 51.0°F10.6°C 92% Calm Calm -- 29.88 in1011.9 mb - 0.00 in0.0 mm 0.00 in0.0 mm
03:50 AM 53.5°F11.9°C 51.2°F10.7°C 92% Calm Calm -- 29.89 in1012.2 mb - 0.00 in0.0 mm 0.00 in0.0 mm
03:40 AM 53.6°F12.0°C 51.3°F10.7°C 92% Calm Calm -- 29.89 in1012.2 mb - 0.00 in0.0 mm 0.00 in0.0 mm
03:20 AM 54.0°F12.2°C 51.4°F10.8°C 91% Calm Calm -- 29.89 in1012.2 mb - 0.00 in0.0 mm 0.00 in0.0 mm
03:10 AM 54.5°F12.5°C 51.9°F11.1°C 91% Calm Calm -- 29.89 in1012.2 mb - 0.00 in0.0 mm 0.00 in0.0 mm
03:00 AM 54.3°F12.4°C 51.4°F10.8°C 90% Calm Calm -- 29.89 in1012.2 mb - 0.00 in0.0 mm 0.00 in0.0 mm
02:50 AM 54.4°F12.4°C 50.6°F10.3°C 87% Calm Calm -- 29.89 in1012.2 mb - 0.00 in0.0 mm 0.00 in0.0 mm
02:40 AM 55.6°F13.1°C 52.1°F11.2°C 88% Calm Calm -- 29.89 in1012.2 mb - 0.00 in0.0 mm 0.00 in0.0 mm
02:30 AM 55.2°F12.9°C 52.0°F11.1°C 89% Calm Calm -- 29.89 in1012.2 mb - 0.00 in0.0 mm 0.00 in0.0 mm
02:20 AM 54.6°F12.6°C 51.7°F10.9°C 90% Calm Calm 1.2 mph1.9 kmh 29.89 in1012.2 mb - 0.00 in0.0 mm 0.00 in0.0 mm
02:10 AM 53.9°F12.2°C 51.0°F10.6°C 90% Calm Calm -- 29.89 in1012.2 mb - 0.00 in0.0 mm 0.00 in0.0 mm
02:00 AM 53.6°F12.0°C 50.2°F10.1°C 88% Calm Calm -- 29.89 in1012.2 mb - 0.00 in0.0 mm 0.00 in0.0 mm
01:50 AM 54.6°F12.6°C 51.4°F10.8°C 89% Calm Calm -- 29.89 in1012.2 mb - 0.00 in0.0 mm 0.00 in0.0 mm
01:40 AM 54.6°F12.6°C 52.0°F11.1°C 91% Calm Calm -- 29.89 in1012.2 mb - 0.00 in0.0 mm 0.00 in0.0 mm
01:30 AM 54.1°F12.3°C 51.5°F10.8°C 91% Calm Calm -- 29.89 in1012.2 mb - 0.00 in0.0 mm 0.00 in0.0 mm
01:20 AM 53.8°F12.1°C 50.9°F10.5°C 90% Calm Calm -- 29.89 in1012.2 mb - 0.00 in0.0 mm 0.00 in0.0 mm
01:10 AM 53.9°F12.2°C 50.7°F10.4°C 89% Calm Calm -- 29.90 in1012.5 mb - 0.00 in0.0 mm 0.00 in0.0 mm
01:00 AM 54.7°F12.6°C 51.5°F10.8°C 89% Calm Calm -- 29.90 in1012.5 mb - 0.00 in0.0 mm 0.00 in0.0 mm
12:50 AM 55.5°F13.1°C 52.9°F11.6°C 91% Calm Calm -- 29.90 in1012.5 mb - 0.00 in0.0 mm 0.00 in0.0 mm
12:40 AM 54.7°F12.6°C 52.1°F11.2°C 91% Calm Calm -- 29.90 in1012.5 mb - 0.00 in0.0 mm 0.00 in0.0 mm
12:30 AM 54.1°F12.3°C 51.5°F10.8°C 91% Calm Calm -- 29.90 in1012.5 mb - 0.00 in0.0 mm 0.00 in0.0 mm
12:20 AM 54.1°F12.3°C 51.5°F10.8°C 91% Calm Calm -- 29.90 in1012.5 mb - 0.00 in0.0 mm 0.00 in0.0 mm
12:10 AM 53.9°F12.2°C 51.3°F10.7°C 91% Calm Calm -- 29.90 in1012.5 mb - 0.00 in0.0 mm 0.00 in0.0 mm
12:00 AM 54.1°F12.3°C 51.5°F10.8°C 91% Calm Calm -- 29.90 in1012.5 mb - 0.00 in0.0 mm 0.00 in0.0 mm